Time;durP1;ratioP1;P1;durP2;ratioP2;P2;SDS_P1;SDS_P2;PMS_P1;PMS_P2;Temp;Humidity;BMP_temperature;BMP_pressure;BME280_temperature;BME280_humidity;BME280_pressure;Samples;Min_cycle;Max_cycle;Signal;HPM_P1;HPM_P2
2021/04/18 00:00:57;;;;;;;66.37;44.20;;;;;;;7.98;66.92;101220.61;1764744;81;21082;-75
2021/04/18 00:03:25;;;;;;;36.85;25.20;;;;;;;7.96;67.41;101218.08;1764794;80;21479;-76
2021/04/18 00:05:53;;;;;;;45.45;32.08;;;;;;;7.97;68.45;101216.31;1764806;80;22280;-75
2021/04/18 00:08:21;;;;;;;35.60;25.30;;;;;;;7.93;68.92;101212.12;1764714;80;21046;-76
2021/04/18 00:10:51;;;;;;;22.00;14.03;;;;;;;7.91;68.59;101210.02;1764800;80;21444;-75
2021/04/18 00:13:19;;;;;;;21.33;15.83;;;;;;;7.89;68.01;101207.45;1764714;80;20936;-76
2021/04/18 00:15:47;;;;;;;51.80;34.55;;;;;;;7.88;67.15;101207.08;1764861;80;20935;-75
2021/04/18 00:18:16;;;;;;;36.98;25.88;;;;;;;7.88;67.33;101204.47;1764905;80;21492;-76
2021/04/18 00:20:44;;;;;;;41.53;28.32;;;;;;;7.89;68.21;101208.77;1764915;80;20951;-78
2021/04/18 00:23:12;;;;;;;30.50;22.27;;;;;;;7.88;68.03;101206.61;1764882;80;21031;-77
2021/04/18 00:25:40;;;;;;;36.88;26.50;;;;;;;7.84;67.93;101208.95;1764863;80;21042;-76
2021/04/18 00:28:10;;;;;;;46.63;32.17;;;;;;;7.79;67.88;101204.37;1764937;80;20947;-77
2021/04/18 00:30:39;;;;;;;38.63;25.70;;;;;;;7.74;68.03;101208.92;1764970;80;20955;-77
2021/04/18 00:33:07;;;;;;;41.35;30.12;;;;;;;7.71;68.92;101212.10;1762322;80;20923;-76
2021/04/18 00:35:36;;;;;;;46.13;30.20;;;;;;;7.65;69.20;101210.13;1758948;80;20955;-76
2021/04/18 00:38:04;;;;;;;47.33;32.13;;;;;;;7.61;70.00;101208.54;1758965;80;21027;-78
2021/04/18 00:40:32;;;;;;;43.28;29.00;;;;;;;7.57;70.43;101210.87;1758947;80;20967;-77
2021/04/18 00:43:00;;;;;;;37.95;25.45;;;;;;;7.55;70.74;101212.68;1758968;80;21226;-77
2021/04/18 00:45:29;;;;;;;42.93;32.10;;;;;;;7.52;70.44;101204.98;1758898;80;20920;-79
2021/04/18 00:47:57;;;;;;;42.38;29.92;;;;;;;7.50;70.66;101204.64;1758962;80;20973;-77
2021/04/18 00:50:36;;;;;;;37.95;26.73;;;;;;;7.45;70.81;101209.58;1758906;80;20935;-77
2021/04/18 00:53:06;;;;;;;43.38;29.67;;;;;;;7.40;70.97;101205.42;1758989;80;21389;-75
2021/04/18 00:55:38;;;;;;;43.15;26.97;;;;;;;7.34;70.96;101200.46;1758998;80;22099;-77
2021/04/18 00:58:06;;;;;;;41.25;28.52;;;;;;;7.27;71.11;101203.75;1758953;80;20959;-77
2021/04/18 01:00:35;;;;;;;40.03;27.87;;;;;;;7.20;71.18;101200.95;1758965;80;20988;-78
2021/04/18 01:03:05;;;;;;;35.05;25.62;;;;;;;7.14;71.57;101207.25;1758949;80;20916;-76
2021/04/18 01:05:35;;;;;;;39.73;27.37;;;;;;;7.09;71.72;101205.70;1758984;80;20940;-77
2021/04/18 01:08:09;;;;;;;38.78;26.50;;;;;;;7.03;72.10;101205.02;1741682;81;21358;-75
2021/04/18 01:10:37;;;;;;;41.68;28.73;;;;;;;7.01;72.09;101205.53;1758875;80;20963;-74
2021/04/18 01:13:07;;;;;;;33.50;25.23;;;;;;;6.97;72.16;101205.23;1758919;80;21350;-74
2021/04/18 01:15:39;;;;;;;38.63;28.10;;;;;;;6.95;72.19;101207.50;1758892;80;21166;-77
2021/04/18 01:18:09;;;;;;;37.95;27.05;;;;;;;6.90;72.18;101201.61;1759002;80;20936;-76
2021/04/18 01:20:39;;;;;;;40.65;27.05;;;;;;;6.86;72.27;101206.07;1758885;80;21381;-76
2021/04/18 01:23:09;;;;;;;41.42;28.27;;;;;;;6.80;72.30;101204.55;1756505;81;20955;-75
2021/04/18 01:25:55;;;;;;;38.90;27.17;;;;;;;6.74;72.42;101211.27;1757176;80;21027;-75
2021/04/18 01:28:25;;;;;;;37.53;24.80;;;;;;;6.71;72.68;101204.00;1758634;80;20952;-74
2021/04/18 01:30:54;;;;;;;38.17;26.02;;;;;;;6.69;72.84;101206.64;1758976;81;21421;-75
2021/04/18 01:33:23;;;;;;;35.50;25.75;;;;;;;6.68;72.85;101203.66;1761004;81;21816;-74
2021/04/18 01:35:53;;;;;;;33.45;23.65;;;;;;;6.70;72.86;101199.70;1741810;81;21384;-76
2021/04/18 01:38:21;;;;;;;38.48;25.80;;;;;;;6.71;72.92;101198.33;1764932;80;21476;-78
2021/04/18 01:40:50;;;;;;;33.73;24.80;;;;;;;6.71;72.80;101202.69;1764775;80;20915;-77
2021/04/18 01:43:19;;;;;;;35.38;23.15;;;;;;;6.70;72.74;101199.70;1764860;80;20939;-76
2021/04/18 01:45:49;;;;;;;32.23;22.85;;;;;;;6.69;72.80;101200.59;1764947;80;21894;-75
2021/04/18 01:48:18;;;;;;;32.55;21.85;;;;;;;6.67;72.83;101199.36;1764828;80;21377;-75
2021/04/18 01:50:48;;;;;;;29.42;21.17;;;;;;;6.67;72.77;101193.27;1764896;80;21504;-75
2021/04/18 01:53:17;;;;;;;35.98;24.02;;;;;;;6.66;72.87;101189.82;1741076;81;20911;-75
2021/04/18 01:55:48;;;;;;;34.70;24.02;;;;;;;6.66;72.80;101192.42;1764863;80;20948;-74
2021/04/18 01:58:16;;;;;;;34.30;25.40;;;;;;;6.69;72.75;101191.01;1764929;80;22287;-75
2021/04/18 02:00:49;;;;;;;33.15;24.10;;;;;;;6.69;72.58;101185.80;1763790;80;21345;-78
2021/04/18 02:03:17;;;;;;;32.00;22.90;;;;;;;6.67;72.50;101180.23;1764866;81;21436;-78
2021/04/18 02:05:46;;;;;;;30.40;22.67;;;;;;;6.65;72.55;101186.83;1764905;80;21496;-76
2021/04/18 02:08:17;;;;;;;38.28;23.50;;;;;;;6.62;72.70;101189.52;1764663;80;20915;-76
2021/04/18 02:10:45;;;;;;;31.40;22.37;;;;;;;6.58;72.91;101189.23;1741044;81;21770;-77
2021/04/18 02:13:16;;;;;;;31.90;22.30;;;;;;;6.55;72.97;101190.64;1764792;80;20947;-77
2021/04/18 02:15:47;;;;;;;33.80;22.60;;;;;;;6.51;73.24;101185.13;1760674;80;21353;-76
2021/04/18 02:18:16;;;;;;;33.85;25.23;;;;;;;6.47;73.30;101184.41;1764896;80;21512;-76
2021/04/18 02:20:45;;;;;;;31.20;22.95;;;;;;;6.44;73.49;101180.58;1764926;80;21410;-76
2021/04/18 02:23:13;;;;;;;29.50;21.45;;;;;;;6.43;73.67;101190.62;1764890;80;21519;-77
2021/04/18 02:25:41;;;;;;;31.95;22.42;;;;;;;6.41;73.76;101188.05;1764840;80;21054;-75
2021/04/18 02:28:09;;;;;;;30.17;22.30;;;;;;;6.41;73.77;101190.66;1741145;81;20968;-77
2021/04/18 02:30:37;;;;;;;33.58;20.68;;;;;;;6.39;73.85;101186.41;1764848;80;21481;-77
2021/04/18 02:33:05;;;;;;;32.40;21.42;;;;;;;6.35;73.81;101183.50;1764152;80;20955;-77
2021/04/18 02:35:34;;;;;;;27.07;18.48;;;;;;;6.34;74.01;101185.26;1758877;80;21784;-75
2021/04/18 02:38:03;;;;;;;27.27;20.68;;;;;;;6.34;73.85;101183.95;1758801;80;21047;-75
2021/04/18 02:40:32;;;;;;;28.10;20.27;;;;;;;6.35;73.83;101176.53;1758923;80;21019;-76
2021/04/18 02:43:01;;;;;;;30.88;21.80;;;;;;;6.37;73.65;101185.14;1758890;80;21090;-76
2021/04/18 02:45:32;;;;;;;28.50;21.40;;;;;;;6.38;73.47;101176.45;1758930;80;21061;-77
2021/04/18 02:48:00;;;;;;;34.23;24.02;;;;;;;6.36;73.30;101178.25;1758861;80;21783;-76
2021/04/18 02:50:29;;;;;;;29.60;21.73;;;;;;;6.34;73.21;101179.20;1758760;80;20955;-75
2021/04/18 02:52:59;;;;;;;30.05;21.23;;;;;;;6.29;73.22;101177.19;1758966;80;21405;-76
2021/04/18 02:55:27;;;;;;;32.78;21.85;;;;;;;6.22;73.41;101170.02;1758910;80;21524;-76
2021/04/18 02:58:06;;;;;;;32.85;21.40;;;;;;;6.14;73.65;101171.59;1757872;80;20919;-76
2021/04/18 03:00:34;;;;;;;29.75;21.75;;;;;;;6.10;74.04;101170.44;1758885;80;21383;-76
2021/04/18 03:03:03;;;;;;;27.05;19.65;;;;;;;6.09;74.51;101173.93;1758796;80;21444;-76
2021/04/18 03:05:32;;;;;;;29.95;20.88;;;;;;;6.12;74.75;101172.55;1758909;80;21023;-76
2021/04/18 03:08:02;;;;;;;33.73;23.22;;;;;;;6.16;74.82;101173.70;1758456;80;21468;-76
2021/04/18 03:10:31;;;;;;;30.25;20.52;;;;;;;6.19;74.72;101173.59;1758986;80;21556;-76
2021/04/18 03:13:00;;;;;;;29.98;20.95;;;;;;;6.20;74.64;101175.30;1758831;80;21104;-77
2021/04/18 03:15:29;;;;;;;30.45;22.75;;;;;;;6.22;74.61;101177.41;1758685;81;20987;-76
2021/04/18 03:17:59;;;;;;;31.00;21.25;;;;;;;6.22;74.52;101177.41;1758823;80;20952;-76
2021/04/18 03:20:28;;;;;;;29.00;19.70;;;;;;;6.23;74.29;101176.95;1758822;80;20932;-76
2021/04/18 03:22:58;;;;;;;28.70;20.23;;;;;;;6.22;74.06;101184.34;1758894;80;20963;-78
2021/04/18 03:25:27;;;;;;;29.87;20.62;;;;;;;6.18;73.94;101177.53;1758779;80;21192;-75
2021/04/18 03:27:55;;;;;;;34.92;22.65;;;;;;;6.15;73.86;101182.85;1758788;80;21035;-76
2021/04/18 03:30:27;;;;;;;35.33;24.00;;;;;;;6.12;73.74;101180.36;1757737;81;20923;-76
2021/04/18 03:32:56;;;;;;;30.12;21.33;;;;;;;6.10;73.78;101182.16;1758597;80;20943;-78
2021/04/18 03:35:26;;;;;;;30.68;21.57;;;;;;;6.06;73.88;101178.80;1758708;80;21015;-75
2021/04/18 03:37:54;;;;;;;26.33;19.37;;;;;;;6.07;74.04;101174.00;1758821;81;21371;-74
2021/04/18 03:40:23;;;;;;;26.30;19.12;;;;;;;6.11;74.17;101177.34;1758756;80;21015;-76
2021/04/18 03:42:52;;;;;;;23.87;18.55;;;;;;;6.16;74.24;101177.60;1758757;80;21038;-75
2021/04/18 03:45:23;;;;;;;25.05;19.10;;;;;;;6.26;74.21;101177.30;1758831;81;21049;-75
2021/04/18 03:47:53;;;;;;;27.67;19.77;;;;;;;6.42;74.19;101179.78;1758759;80;21019;-76
2021/04/18 03:50:23;;;;;;;25.68;18.35;;;;;;;6.66;74.38;101182.00;1758814;80;21479;-75
2021/04/18 03:53:05;;;;;;;26.48;17.40;;;;;;;6.88;73.80;101170.38;1757444;81;21043;-74
2021/04/18 03:55:34;;;;;;;26.40;18.07;;;;;;;7.15;73.43;101171.12;1758828;80;20960;-74
2021/04/18 03:58:03;;;;;;;23.83;18.40;;;;;;;7.35;72.80;101176.91;1758829;80;20987;-75
2021/04/18 04:00:33;;;;;;;27.60;18.17;;;;;;;7.54;72.11;101178.38;1758886;80;20963;-75
2021/04/18 04:03:02;;;;;;;27.15;18.07;;;;;;;7.67;71.64;101174.84;1759029;80;22304;-73
2021/04/18 04:05:33;;;;;;;25.32;19.98;;;;;;;7.77;71.29;101171.41;1758885;80;20989;-75
2021/04/18 04:08:05;;;;;;;24.87;18.62;;;;;;;7.82;71.01;101173.37;1759293;80;21039;-76
2021/04/18 04:11:48;;;;;;;26.17;18.17;;;;;;;7.95;70.53;101171.12;1845228;76;22604;-77
2021/04/18 04:14:21;;;;;;;22.67;18.92;;;;;;;7.92;70.17;101172.10;1855233;77;20981;-75
2021/04/18 04:16:50;;;;;;;28.05;19.20;;;;;;;7.97;70.15;101174.06;1855480;77;21817;-76
2021/04/18 04:19:20;;;;;;;20.85;17.70;;;;;;;8.03;70.41;101164.68;1855449;77;20982;-77
2021/04/18 04:21:57;;;;;;;20.48;17.07;;;;;;;8.11;70.56;101173.50;1786581;80;20963;-76
2021/04/18 04:24:44;;;;;;;25.72;16.62;;;;;;;8.22;70.86;101169.98;1789931;80;20954;-76
2021/04/18 04:27:13;;;;;;;24.43;16.52;;;;;;;8.40;70.85;101172.32;1818635;78;20920;-75
2021/04/18 04:29:42;;;;;;;29.25;16.00;;;;;;;8.59;70.54;101174.17;1818628;78;21354;-77
2021/04/18 04:32:11;;;;;;;37.20;18.80;;;;;;;8.82;70.72;101170.55;1818507;79;20959;-77
2021/04/18 04:34:40;;;;;;;28.62;17.48;;;;;;;8.98;70.08;101168.98;1818622;78;20942;-76
2021/04/18 04:37:09;;;;;;;24.85;16.32;;;;;;;9.18;69.27;101168.52;1818599;78;21575;-78
2021/04/18 04:39:37;;;;;;;25.60;17.10;;;;;;;9.38;68.81;101168.45;1818676;79;20938;-77
2021/04/18 04:42:06;;;;;;;28.70;17.73;;;;;;;9.57;68.02;101165.00;1818718;78;21430;-78
2021/04/18 04:44:35;;;;;;;33.92;17.25;;;;;;;9.73;67.02;101169.89;1818826;79;20935;-78
2021/04/18 04:47:03;;;;;;;26.17;16.57;;;;;;;9.85;66.78;101166.70;1818876;78;21424;-78
2021/04/18 04:49:32;;;;;;;26.40;17.67;;;;;;;10.01;66.19;101166.80;1819288;78;21372;-79
2021/04/18 04:52:00;;;;;;;20.90;15.40;;;;;;;10.37;65.23;101169.39;1819930;79;20986;-80
2021/04/18 04:54:28;;;;;;;23.92;14.80;;;;;;;10.96;64.10;101166.38;1819159;79;22118;-78
2021/04/18 04:56:58;;;;;;;21.12;14.63;;;;;;;11.69;63.06;101171.19;1818514;79;21368;-80
2021/04/18 04:59:26;;;;;;;20.48;15.05;;;;;;;12.33;61.26;101168.02;1818750;79;21006;-80
2021/04/18 05:01:54;;;;;;;17.52;14.45;;;;;;;12.82;59.58;101160.66;1818714;78;20938;-78
2021/04/18 05:04:23;;;;;;;18.87;13.98;;;;;;;13.39;58.13;101166.42;1818509;78;20982;-78
2021/04/18 05:06:52;;;;;;;22.52;16.10;;;;;;;13.98;56.55;101167.45;1818524;79;21196;-78
2021/04/18 05:09:20;;;;;;;20.30;16.37;;;;;;;14.42;55.33;101165.46;1818365;79;20974;-80
2021/04/18 05:11:49;;;;;;;20.23;15.55;;;;;;;14.69;53.71;101160.96;1805271;78;21015;-79
2021/04/18 05:14:18;;;;;;;19.35;14.30;;;;;;;14.90;53.20;101157.81;1804203;79;20939;-78
2021/04/18 05:16:46;;;;;;;28.35;19.15;;;;;;;15.02;52.90;101153.45;1804323;79;21456;-78
2021/04/18 05:19:14;;;;;;;20.40;13.93;;;;;;;15.14;52.45;101152.61;1804219;79;21364;-79
2021/04/18 05:21:42;;;;;;;18.10;14.40;;;;;;;15.35;51.31;101152.87;1803926;79;21030;-80
2021/04/18 05:24:11;;;;;;;17.35;14.50;;;;;;;16.02;50.39;101147.61;1803676;79;21428;-77
2021/04/18 05:26:39;;;;;;;15.20;12.58;;;;;;;16.02;50.39;101147.61;1803645;79;21595;-79
2021/04/18 05:29:08;;;;;;;18.45;13.68;;;;;;;16.49;49.74;101151.11;1804120;79;21380;-79
2021/04/18 05:31:36;;;;;;;14.13;11.63;;;;;;;16.89;48.28;101144.92;1803683;79;21147;-78
2021/04/18 05:34:05;;;;;;;14.28;11.63;;;;;;;17.46;45.75;101140.91;1803783;79;20955;-79
2021/04/18 05:36:33;;;;;;;13.85;10.55;;;;;;;17.46;45.75;101140.91;1803803;79;20959;-80
2021/04/18 05:39:07;;;;;;;13.18;10.63;;;;;;;17.89;45.77;101143.56;1803720;79;21499;-80
2021/04/18 05:41:36;;;;;;;9.33;8.33;;;;;;;18.46;44.51;101143.30;1803804;79;20880;-78
2021/04/18 05:44:07;;;;;;;11.40;8.63;;;;;;;19.02;42.07;101143.74;1803816;79;21365;-79
2021/04/18 05:46:35;;;;;;;9.20;7.05;;;;;;;19.56;42.45;101146.13;1771970;81;20972;-78
2021/04/18 05:49:04;;;;;;;7.95;6.37;;;;;;;20.07;40.64;101153.05;1775599;80;21429;-78
2021/04/18 05:51:33;;;;;;;6.42;5.10;;;;;;;20.51;39.50;101150.76;1771669;81;21561;-77
2021/04/18 05:54:01;;;;;;;7.10;5.37;;;;;;;20.94;38.35;101145.87;1775515;80;20982;-78
2021/04/18 05:56:29;;;;;;;4.30;3.85;;;;;;;21.31;36.67;101144.51;1771906;80;21375;-80
2021/04/18 05:58:58;;;;;;;4.20;3.80;;;;;;;21.64;34.80;101136.39;1803541;79;20955;-80
2021/04/18 06:01:27;;;;;;;3.75;3.45;;;;;;;21.91;34.35;101138.14;1772041;81;20945;-79
2021/04/18 06:03:56;;;;;;;3.42;3.08;;;;;;;22.12;33.48;101142.31;1775519;80;20948;-80
2021/04/18 06:06:25;;;;;;;20.23;3.50;;;;;;;22.31;32.81;101135.48;1750483;80;20934;-81
2021/04/18 06:08:55;;;;;;;4.22;2.95;;;;;;;22.53;32.91;101135.97;1803756;79;22257;-82
2021/04/18 06:11:23;;;;;;;6.28;3.60;;;;;;;22.80;32.32;101135.45;1771838;80;20988;-80
2021/04/18 06:13:52;;;;;;;4.58;3.37;;;;;;;22.93;30.47;101137.19;1775468;80;21010;-77
2021/04/18 06:16:21;;;;;;;3.27;2.92;;;;;;;22.98;30.26;101128.17;1771913;80;21017;-78
2021/04/18 06:18:49;;;;;;;3.85;3.20;;;;;;;23.08;30.26;101130.27;1775612;80;21540;-79
2021/04/18 06:21:18;;;;;;;3.85;2.95;;;;;;;23.29;30.30;101131.16;1771959;79;22291;-79
2021/04/18 06:23:48;;;;;;;8.85;3.12;;;;;;;23.58;30.62;101132.06;1775557;80;20943;-81
2021/04/18 06:26:17;;;;;;;2.75;2.55;;;;;;;23.91;30.09;101132.65;1772034;80;20950;-79
2021/04/18 06:28:45;;;;;;;2.70;1.80;;;;;;;24.22;28.25;101122.59;1775706;80;21444;-79
2021/04/18 06:31:14;;;;;;;1.80;1.65;;;;;;;24.45;27.44;101128.08;1772033;80;21001;-81
2021/04/18 06:33:43;;;;;;;2.40;1.72;;;;;;;24.60;26.63;101133.11;1775466;80;21407;-81
2021/04/18 06:36:14;;;;;;;2.00;1.77;;;;;;;24.57;26.45;101131.61;1771991;79;21379;-82
2021/04/18 06:38:43;;;;;;;4.60;3.08;;;;;;;24.47;26.42;101126.06;1803670;79;21460;-81
2021/04/18 06:41:17;;;;;;;6.62;2.55;;;;;;;24.43;27.04;101126.90;1803492;79;21038;-80
2021/04/18 06:43:47;;;;;;;3.30;2.72;;;;;;;24.34;26.66;101126.58;1803887;79;20948;-81
2021/04/18 06:46:19;;;;;;;3.12;2.83;;;;;;;24.31;26.80;101125.08;1771977;81;21154;-81
2021/04/18 06:48:48;;;;;;;3.67;3.08;;;;;;;24.45;26.92;101123.55;1776089;80;21369;-79
2021/04/18 06:51:18;;;;;;;3.70;3.22;;;;;;;24.66;27.14;101123.04;1771942;81;20970;-80
2021/04/18 06:53:47;;;;;;;3.87;3.35;;;;;;;24.80;27.27;101132.21;1771744;81;20919;-79
2021/04/18 06:56:16;;;;;;;5.75;2.90;;;;;;;24.95;26.79;101128.31;1775629;80;20975;-80
2021/04/18 06:58:45;;;;;;;5.90;2.25;;;;;;;25.01;25.78;101118.20;1771775;81;22290;-80
2021/04/18 07:01:13;;;;;;;4.10;2.70;;;;;;;24.91;25.68;101119.76;1775345;80;20979;-77
2021/04/18 07:03:43;;;;;;;4.53;2.92;;;;;;;24.80;26.09;101122.82;1771916;79;20934;-79
2021/04/18 07:06:11;;;;;;;6.12;3.40;;;;;;;24.65;26.42;101123.20;1756174;79;21038;-82
2021/04/18 07:08:41;;;;;;;8.60;3.72;;;;;;;24.63;26.20;101121.19;1772164;80;20961;-78
2021/04/18 07:11:18;;;;;;;4.70;3.50;;;;;;;24.63;26.53;101122.02;1775340;80;21370;-79
2021/04/18 07:13:47;;;;;;;3.95;3.05;;;;;;;24.90;27.15;101115.89;1771963;80;20958;-80
2021/04/18 07:16:35;;;;;;;6.17;2.87;;;;;;;25.11;25.62;101113.98;1803659;79;20932;-79
2021/04/18 07:19:00;;;;;;;6.90;3.50;;;;;;;25.23;25.18;101116.61;1803301;79;21058;-81
2021/04/18 07:21:49;;;;;;;5.12;3.02;;;;;;;25.15;25.62;101118.81;1781392;79;20951;-80
2021/04/18 07:24:19;;;;;;;3.67;3.30;;;;;;;24.90;25.84;101118.58;1771991;81;21380;-81
2021/04/18 07:27:04;;;;;;;3.22;2.75;;;;;;;24.93;25.76;101116.91;1775383;80;21078;-80
2021/04/18 07:29:33;;;;;;;2.65;2.45;;;;;;;24.91;26.06;101114.39;1772058;79;21447;-83
2021/04/18 07:32:23;;;;;;;2.25;2.05;;;;;;;24.76;26.51;101121.48;1803520;79;20975;-81
2021/04/18 07:34:52;;;;;;;2.35;2.05;;;;;;;24.62;26.55;101116.34;1772029;80;20976;-81
2021/04/18 07:37:23;;;;;;;2.02;1.52;;;;;;;24.67;26.17;101117.99;1775411;80;21355;-80
2021/04/18 07:39:56;;;;;;;2.12;2.00;;;;;;;24.71;25.66;101115.30;1771800;80;20954;-78
2021/04/18 07:42:34;;;;;;;4.60;2.17;;;;;;;24.72;25.93;101112.97;1775340;80;20971;-77
2021/04/18 07:45:16;;;;;;;3.98;1.62;;;;;;;24.49;26.45;101110.17;1771950;80;20978;-79
2021/04/18 07:47:46;;;;;;;1.75;1.65;;;;;;;24.23;26.15;101112.19;1803335;79;20940;-80
2021/04/18 07:50:20;;;;;;;2.55;1.40;;;;;;;23.70;25.58;101111.18;1772261;80;21450;-79
2021/04/18 07:52:49;;;;;;;2.25;1.42;;;;;;;23.15;26.02;101101.86;1775553;80;20975;-78
2021/04/18 07:55:18;;;;;;;1.80;1.22;;;;;;;22.81;26.43;101105.02;1771833;79;20934;-77
2021/04/18 07:57:46;;;;;;;1.12;1.10;;;;;;;22.46;26.46;101111.70;1775532;80;20947;-76
2021/04/18 08:00:17;;;;;;;2.27;1.98;;;;;;;22.34;27.17;101106.27;1771934;80;21356;-75
2021/04/18 08:02:49;;;;;;;2.17;1.45;;;;;;;22.21;27.70;101098.66;1775443;80;22110;-76
2021/04/18 08:05:18;;;;;;;4.60;1.50;;;;;;;22.33;28.01;101098.76;1771880;79;21399;-77
2021/04/18 08:08:14;;;;;;;1.92;1.30;;;;;;;22.43;27.74;101102.65;1803524;79;20935;-76
2021/04/18 08:10:53;;;;;;;7.42;1.47;;;;;;;22.27;27.09;101089.20;1803419;79;20975;-77
2021/04/18 08:13:26;;;;;;;2.80;1.55;;;;;;;21.83;27.57;101088.69;1771910;80;21016;-75
2021/04/18 08:16:04;;;;;;;3.90;3.00;;;;;;;21.30;28.19;101086.81;1775401;80;21447;-75
2021/04/18 08:18:43;;;;;;;4.90;2.22;;;;;;;20.86;29.00;101095.47;1771722;81;20993;-76
2021/04/18 08:21:38;;;;;;;4.15;3.27;;;;;;;20.50;29.76;101094.47;1774516;80;21460;-76
2021/04/18 08:24:20;;;;;;;2.62;2.30;;;;;;;20.12;30.12;101093.58;1771892;79;20941;-76
2021/04/18 08:27:11;;;;;;;3.65;1.95;;;;;;;19.66;30.58;101092.44;1803736;79;20943;-74
2021/04/18 08:30:03;;;;;;;2.02;1.62;;;;;;;19.34;31.57;101086.89;1803654;79;22357;-78
2021/04/18 08:35:25;;;;;;;2.35;2.15;;;;;;;18.84;32.80;101077.09;1847724;75;22642;-82
2021/04/18 08:38:14;;;;;;;2.60;2.40;;;;;;;18.64;33.21;101075.30;1818149;79;20907;-77
2021/04/18 08:40:45;;;;;;;2.70;2.00;;;;;;;18.52;33.12;101069.72;1817989;77;21376;-79
2021/04/18 08:43:23;;;;;;;3.80;2.35;;;;;;;18.38;33.51;101073.07;1817907;78;20922;-78
2021/04/18 08:45:53;;;;;;;3.17;2.87;;;;;;;18.21;33.42;101073.20;1818037;79;20899;-82
2021/04/18 08:48:21;;;;;;;4.00;2.77;;;;;;;17.96;33.80;101063.83;1817943;79;21002;-75
2021/04/18 08:50:57;;;;;;;8.68;2.20;;;;;;;17.70;34.35;101071.27;1817880;78;20931;-74
2021/04/18 08:53:25;;;;;;;2.35;2.17;;;;;;;17.45;34.84;101074.25;1817848;78;21427;-74
2021/04/18 08:55:58;;;;;;;3.00;2.70;;;;;;;17.19;35.37;101063.97;1817867;79;21022;-82
2021/04/18 08:58:31;;;;;;;2.83;2.52;;;;;;;16.96;36.42;101065.80;1818059;78;21437;-76
2021/04/18 09:01:07;;;;;;;2.70;2.50;;;;;;;16.75;37.20;101059.05;1818021;79;21120;-78
2021/04/18 09:03:40;;;;;;;5.37;3.80;;;;;;;16.54;37.57;101054.95;1817798;79;21080;-77
2021/04/18 09:06:18;;;;;;;3.58;2.12;;;;;;;16.37;37.84;101054.47;1817864;78;21010;-77
2021/04/18 09:08:53;;;;;;;4.03;2.35;;;;;;;16.28;37.80;101056.51;1816997;77;20957;-77
2021/04/18 09:11:21;;;;;;;2.90;2.47;;;;;;;16.28;38.44;101058.31;1817895;78;20938;-76
2021/04/18 09:13:59;;;;;;;3.85;2.95;;;;;;;16.24;38.53;101062.16;1818006;79;21423;-76
2021/04/18 09:16:30;;;;;;;3.58;2.45;;;;;;;16.18;38.78;101057.33;1818330;79;20966;-77
2021/04/18 09:19:30;;;;;;;4.62;2.40;;;;;;;16.04;38.59;101054.42;1818032;79;22380;-76
2021/04/18 09:22:17;;;;;;;3.47;2.30;;;;;;;16.04;38.59;101054.42;1817949;77;21002;-78
2021/04/18 09:24:53;;;;;;;5.58;2.90;;;;;;;15.99;38.09;101057.91;1818029;79;21041;-81
2021/04/18 09:27:27;;;;;;;3.33;1.98;;;;;;;15.94;38.16;101065.70;1818071;77;21324;-79
2021/04/18 09:29:58;;;;;;;;;;;;;;;15.95;38.35;101059.44;1820723;79;21014;-79
2021/04/18 09:32:32;;;;;;;3.42;2.35;;;;;;;15.94;38.36;101054.25;1818033;79;21355;-80
2021/04/18 09:35:02;;;;;;;4.08;1.92;;;;;;;15.92;38.32;101054.39;1828900;77;21459;-75
2021/04/18 09:37:33;;;;;;;2.77;2.55;;;;;;;15.97;38.33;101050.56;1833024;78;20918;-79
2021/04/18 09:40:06;;;;;;;3.80;2.80;;;;;;;15.95;38.00;101052.83;1833366;78;20910;-82
2021/04/18 09:42:38;;;;;;;4.80;3.67;;;;;;;15.98;37.70;101045.12;1833314;78;21012;-80
2021/04/18 09:45:18;;;;;;;2.87;2.60;;;;;;;16.01;38.61;101045.38;1833020;78;22116;-81
2021/04/18 09:47:51;;;;;;;5.00;3.10;;;;;;;16.15;38.04;101043.86;1831713;78;21527;-78
2021/04/18 09:50:29;;;;;;;2.62;2.30;;;;;;;16.45;38.18;101041.11;1832412;78;20974;-78
2021/04/18 09:53:15;;;;;;;2.92;1.95;;;;;;;16.80;37.83;101037.53;1832398;77;20969;-78
2021/04/18 09:55:58;;;;;;;3.25;2.70;;;;;;;17.13;37.08;101042.77;1832417;78;21033;-82
2021/04/18 09:58:34;;;;;;;2.20;1.90;;;;;;;17.31;36.63;101034.29;1832535;78;21255;-80
2021/04/18 10:01:03;;;;;;;4.28;2.37;;;;;;;17.53;36.40;101030.22;1832395;77;20902;-80
2021/04/18 10:03:40;;;;;;;3.33;2.10;;;;;;;17.79;37.05;101029.38;1832728;78;20930;-79
2021/04/18 10:06:11;;;;;;;2.75;1.82;;;;;;;18.03;36.83;101030.98;1832659;78;20926;-81
2021/04/18 10:08:40;;;;;;;3.80;2.20;;;;;;;18.27;34.01;101029.84;1832999;78;21080;-81
2021/04/18 10:11:14;;;;;;;1.55;1.42;;;;;;;18.30;34.13;101023.79;1832573;78;21345;-83
2021/04/18 10:13:56;;;;;;;1.80;1.70;;;;;;;18.30;33.80;101019.80;1833088;77;20946;-77
2021/04/18 10:16:40;;;;;;;2.65;1.85;;;;;;;18.20;33.97;101021.06;1832829;78;21039;-85
2021/04/18 10:19:24;;;;;;;1.87;1.77;;;;;;;18.05;34.44;101022.38;1833079;77;20968;-75
2021/04/18 10:22:10;;;;;;;4.58;2.33;;;;;;;17.98;34.64;101026.03;1832561;78;20946;-79
2021/04/18 10:24:50;;;;;;;2.80;2.45;;;;;;;17.91;35.02;101029.35;1832420;78;21329;-77
2021/04/18 10:27:32;;;;;;;5.90;2.25;;;;;;;17.84;35.74;101024.21;1832350;77;20949;-77
2021/04/18 10:30:08;;;;;;;2.27;2.00;;;;;;;17.92;36.21;101027.04;1812715;78;21301;-78
2021/04/18 10:32:36;;;;;;;6.12;2.87;;;;;;;18.25;35.65;101022.48;1812469;79;20982;-76
2021/04/18 10:35:07;;;;;;;2.50;2.30;;;;;;;18.71;35.78;101012.68;1812712;79;21444;-76
2021/04/18 10:37:34;;;;;;;2.27;1.87;;;;;;;19.26;34.07;101022.91;1812826;78;21267;-77
2021/04/18 10:40:04;;;;;;;2.10;1.87;;;;;;;19.67;33.49;101021.80;1780790;80;21479;-79
2021/04/18 10:42:34;;;;;;;3.87;2.17;;;;;;;20.00;32.55;101010.84;1780742;79;21037;-80
2021/04/18 10:45:05;;;;;;;2.47;1.98;;;;;;;20.15;32.43;101009.39;1780847;80;21333;-80
2021/04/18 10:47:33;;;;;;;2.20;2.00;;;;;;;20.45;32.75;101010.98;1781167;80;21344;-79
2021/04/18 10:50:15;;;;;;;;;;;;;;;;;;;;;
2021/04/18 10:52:56;;;;;;;2.87;2.62;;;;;;;20.54;31.69;101005.23;1816251;79;22784;-82
2021/04/18 10:55:25;;;;;;;6.53;3.58;;;;;;;20.64;32.48;101005.23;1789589;80;20942;-81
2021/04/18 10:57:52;;;;;;;5.28;2.90;;;;;;;20.89;31.81;101006.34;1789522;80;21208;-80
2021/04/18 11:00:23;;;;;;;6.78;4.42;;;;;;;20.96;31.59;101006.59;1789051;80;21085;-81
2021/04/18 11:02:52;;;;;;;4.12;3.17;;;;;;;21.09;31.09;100998.55;1789088;80;21057;-79
2021/04/18 11:05:23;;;;;;;3.58;2.40;;;;;;;21.13;30.66;100992.94;1789103;80;21081;-82
2021/04/18 11:07:50;;;;;;;4.25;2.77;;;;;;;21.16;30.95;101001.95;1789144;80;20934;-81
2021/04/18 11:10:19;;;;;;;4.08;2.67;;;;;;;21.17;31.10;100995.66;1789166;80;21206;-80
2021/04/18 11:12:48;;;;;;;3.10;2.87;;;;;;;21.25;31.47;101004.55;1789066;80;20950;-81
2021/04/18 11:15:16;;;;;;;5.17;3.42;;;;;;;21.42;31.10;100994.06;1789134;80;20995;-81
2021/04/18 11:17:44;;;;;;;4.15;3.52;;;;;;;21.45;31.50;100999.92;1789181;80;20998;-79
2021/04/18 11:20:14;;;;;;;3.50;3.20;;;;;;;21.45;31.04;100989.24;1789184;80;21029;-79
2021/04/18 11:22:42;;;;;;;4.08;2.72;;;;;;;21.33;31.35;100991.79;1789186;80;22573;-77
2021/04/18 11:25:13;;;;;;;4.42;2.25;;;;;;;21.37;31.22;100987.83;1789033;80;20954;-77
2021/04/18 11:27:41;;;;;;;6.33;3.25;;;;;;;21.41;31.08;100987.04;1789138;80;20958;-79
2021/04/18 11:30:14;;;;;;;6.85;3.58;;;;;;;21.49;31.03;100985.28;1789042;80;21029;-76
2021/04/18 11:32:45;;;;;;;3.52;3.00;;;;;;;21.53;30.37;100982.65;1789202;80;20987;-79
2021/04/18 11:35:13;;;;;;;4.28;3.87;;;;;;;21.29;30.86;100984.58;1789020;80;21374;-79
2021/04/18 11:37:47;;;;;;;4.15;3.75;;;;;;;21.28;30.78;100976.75;1788375;80;21014;-76
2021/04/18 11:40:18;;;;;;;7.78;5.75;;;;;;;21.20;31.40;100971.33;1789199;80;21389;-77
2021/04/18 11:42:47;;;;;;;19.10;12.85;;;;;;;21.19;30.79;100969.64;1789034;80;20982;-76
2021/04/18 11:45:15;;;;;;;10.80;6.53;;;;;;;21.16;30.80;100963.28;1789165;80;21539;-77